Gomer, Ohio
Current Conditions -  °F | °C
As of 4:03 PM on Saturday 20 Dec 2014 (Local Time) from KAOH Reporting Station
Haze Haze  
Wind Chill: 29°   Ceiling: 3300
Heat Index: 33°   Visibility: 6mi
Dew Point: 22°   Wind: 5mph
Humidity: 64%   Direction: 240°WSW
Pressure: 30.24"   Gusts: NA
Location:  40.84°N, 84.19°W
Report Text: KAOH 202103Z AUTO 24004KT 6SM HZ SCT024 OVC033 01/M06 A3024 RMK AO2 T00061056
Loading
Personal Weather Stations






























Interactive Weather Map New forecast layout! Learn more

10-Day Weather Forecast

Advertisements
Track Severe Weather on mobile